sensor_id;sensor_type;location;lat;lon;timestamp;pressure;altitude;pressure_sealevel;temperature;humidity
34921;BME280;21128;50.016;20.002;2024-02-23T00:00:56;96951.38;;;10.17;75.42
34921;BME280;21128;50.016;20.002;2024-02-23T00:03:43;96950.67;;;10.17;75.48
34921;BME280;21128;50.016;20.002;2024-02-23T00:06:10;96953.45;;;10.17;75.58
34921;BME280;21128;50.016;20.002;2024-02-23T00:08:36;96947.71;;;10.17;75.55
34921;BME280;21128;50.016;20.002;2024-02-23T00:11:04;96946.61;;;10.16;75.63
34921;BME280;21128;50.016;20.002;2024-02-23T00:13:30;96945.47;;;10.15;75.68
34921;BME280;21128;50.016;20.002;2024-02-23T00:15:58;96946.44;;;10.15;75.81
34921;BME280;21128;50.016;20.002;2024-02-23T00:18:25;96942.20;;;10.14;75.76
34921;BME280;21128;50.016;20.002;2024-02-23T00:20:51;96939.94;;;10.13;75.82
34921;BME280;21128;50.016;20.002;2024-02-23T00:23:18;96945.02;;;10.13;75.92
34921;BME280;21128;50.016;20.002;2024-02-23T00:25:46;96951.55;;;10.13;75.99
34921;BME280;21128;50.016;20.002;2024-02-23T00:28:12;96951.88;;;10.13;76.02
34921;BME280;21128;50.016;20.002;2024-02-23T00:30:39;96952.23;;;10.13;76.11
34921;BME280;21128;50.016;20.002;2024-02-23T00:33:06;96947.92;;;10.12;76.22
34921;BME280;21128;50.016;20.002;2024-02-23T00:35:33;96942.02;;;10.12;76.12
34921;BME280;21128;50.016;20.002;2024-02-23T00:37:59;96938.98;;;10.12;76.23
34921;BME280;21128;50.016;20.002;2024-02-23T00:40:27;96935.29;;;10.13;76.48
34921;BME280;21128;50.016;20.002;2024-02-23T00:42:53;96939.80;;;10.13;76.59
34921;BME280;21128;50.016;20.002;2024-02-23T00:45:20;96941.34;;;10.13;76.61
34921;BME280;21128;50.016;20.002;2024-02-23T00:47:48;96942.30;;;10.13;76.97
34921;BME280;21128;50.016;20.002;2024-02-23T00:50:16;96944.24;;;10.12;76.90
34921;BME280;21128;50.016;20.002;2024-02-23T00:52:43;96942.84;;;10.12;77.12
34921;BME280;21128;50.016;20.002;2024-02-23T00:55:10;96941.67;;;10.13;77.17
34921;BME280;21128;50.016;20.002;2024-02-23T00:57:38;96942.33;;;10.14;77.33
34921;BME280;21128;50.016;20.002;2024-02-23T01:00:05;96934.13;;;10.13;77.29
34921;BME280;21128;50.016;20.002;2024-02-23T01:02:32;96935.05;;;10.13;77.51
34921;BME280;21128;50.016;20.002;2024-02-23T01:04:59;96932.14;;;10.13;77.65
34921;BME280;21128;50.016;20.002;2024-02-23T01:07:27;96929.02;;;10.13;77.91
34921;BME280;21128;50.016;20.002;2024-02-23T01:09:53;96929.27;;;10.12;78.16
34921;BME280;21128;50.016;20.002;2024-02-23T01:12:20;96929.34;;;10.11;78.37
34921;BME280;21128;50.016;20.002;2024-02-23T01:14:47;96927.39;;;10.10;78.68
34921;BME280;21128;50.016;20.002;2024-02-23T01:17:15;96927.66;;;10.09;78.86
34921;BME280;21128;50.016;20.002;2024-02-23T01:19:43;96933.28;;;10.08;79.22
34921;BME280;21128;50.016;20.002;2024-02-23T01:22:11;96933.22;;;10.05;79.49
34921;BME280;21128;50.016;20.002;2024-02-23T01:24:37;96932.99;;;10.03;79.77
34921;BME280;21128;50.016;20.002;2024-02-23T01:27:04;96934.73;;;10.00;80.02
34921;BME280;21128;50.016;20.002;2024-02-23T01:29:31;96934.86;;;9.98;80.12
34921;BME280;21128;50.016;20.002;2024-02-23T01:31:58;96931.52;;;9.95;80.37
34921;BME280;21128;50.016;20.002;2024-02-23T01:34:25;96925.73;;;9.92;80.66
34921;BME280;21128;50.016;20.002;2024-02-23T01:36:52;96923.59;;;9.90;81.08
34921;BME280;21128;50.016;20.002;2024-02-23T01:39:19;96919.54;;;9.87;81.23
34921;BME280;21128;50.016;20.002;2024-02-23T01:41:46;96918.88;;;9.85;81.41
34921;BME280;21128;50.016;20.002;2024-02-23T01:44:13;96915.25;;;9.83;81.65
34921;BME280;21128;50.016;20.002;2024-02-23T01:46:41;96913.48;;;9.81;81.74
34921;BME280;21128;50.016;20.002;2024-02-23T01:49:09;96906.70;;;9.80;81.77
34921;BME280;21128;50.016;20.002;2024-02-23T01:51:35;96906.92;;;9.78;81.93
34921;BME280;21128;50.016;20.002;2024-02-23T01:54:03;96911.15;;;9.76;82.19
34921;BME280;21128;50.016;20.002;2024-02-23T01:56:32;96906.08;;;9.75;82.26
34921;BME280;21128;50.016;20.002;2024-02-23T01:58:59;96898.74;;;9.74;82.49
34921;BME280;21128;50.016;20.002;2024-02-23T02:01:30;96899.38;;;9.71;82.75
34921;BME280;21128;50.016;20.002;2024-02-23T02:03:58;96901.78;;;9.70;82.57
34921;BME280;21128;50.016;20.002;2024-02-23T02:06:25;96902.70;;;9.69;82.67
34921;BME280;21128;50.016;20.002;2024-02-23T02:08:52;96903.79;;;9.68;82.77
34921;BME280;21128;50.016;20.002;2024-02-23T02:11:19;96907.34;;;9.69;82.68
34921;BME280;21128;50.016;20.002;2024-02-23T02:13:46;96901.41;;;9.69;82.81
34921;BME280;21128;50.016;20.002;2024-02-23T02:16:13;96898.02;;;9.70;82.67
34921;BME280;21128;50.016;20.002;2024-02-23T02:18:40;96899.69;;;9.70;82.75
34921;BME280;21128;50.016;20.002;2024-02-23T02:21:06;96896.83;;;9.71;82.64
34921;BME280;21128;50.016;20.002;2024-02-23T02:23:33;96897.23;;;9.72;82.61
34921;BME280;21128;50.016;20.002;2024-02-23T02:26:00;96896.06;;;9.71;82.82
34921;BME280;21128;50.016;20.002;2024-02-23T02:28:27;96897.35;;;9.71;82.89
34921;BME280;21128;50.016;20.002;2024-02-23T02:30:54;96897.91;;;9.70;82.68
34921;BME280;21128;50.016;20.002;2024-02-23T02:33:21;96901.45;;;9.69;82.79
34921;BME280;21128;50.016;20.002;2024-02-23T02:35:48;96907.23;;;9.67;82.87
34921;BME280;21128;50.016;20.002;2024-02-23T02:38:16;96907.44;;;9.65;82.95
34921;BME280;21128;50.016;20.002;2024-02-23T02:40:43;96911.52;;;9.65;83.12
34921;BME280;21128;50.016;20.002;2024-02-23T02:43:10;96913.31;;;9.64;83.14
34921;BME280;21128;50.016;20.002;2024-02-23T02:45:37;96912.07;;;9.65;83.11
34921;BME280;21128;50.016;20.002;2024-02-23T02:48:04;96913.89;;;9.65;82.93
34921;BME280;21128;50.016;20.002;2024-02-23T02:50:31;96914.22;;;9.66;82.91
34921;BME280;21128;50.016;20.002;2024-02-23T02:52:58;96917.56;;;9.65;82.79
34921;BME280;21128;50.016;20.002;2024-02-23T02:55:25;96918.73;;;9.66;82.81
34921;BME280;21128;50.016;20.002;2024-02-23T02:57:52;96918.86;;;9.66;82.93
34921;BME280;21128;50.016;20.002;2024-02-23T03:00:18;96914.98;;;9.67;82.60
34921;BME280;21128;50.016;20.002;2024-02-23T03:02:45;96915.26;;;9.67;82.61
34921;BME280;21128;50.016;20.002;2024-02-23T03:05:12;96912.80;;;9.67;82.34
34921;BME280;21128;50.016;20.002;2024-02-23T03:07:39;96913.03;;;9.70;82.26
34921;BME280;21128;50.016;20.002;2024-02-23T03:10:06;96910.95;;;9.71;82.13
34921;BME280;21128;50.016;20.002;2024-02-23T03:12:33;96908.74;;;9.73;82.08
34921;BME280;21128;50.016;20.002;2024-02-23T03:15:00;96914.84;;;9.75;81.76
34921;BME280;21128;50.016;20.002;2024-02-23T03:17:29;96912.50;;;9.78;81.38
34921;BME280;21128;50.016;20.002;2024-02-23T03:19:56;96907.27;;;9.81;81.29
34921;BME280;21128;50.016;20.002;2024-02-23T03:22:23;96904.04;;;9.83;81.16
34921;BME280;21128;50.016;20.002;2024-02-23T03:24:49;96904.98;;;9.85;80.94
34921;BME280;21128;50.016;20.002;2024-02-23T03:27:16;96904.16;;;9.88;80.82
34921;BME280;21128;50.016;20.002;2024-02-23T03:29:43;96902.52;;;9.90;80.63
34921;BME280;21128;50.016;20.002;2024-02-23T03:32:10;96902.08;;;9.93;80.54
34921;BME280;21128;50.016;20.002;2024-02-23T03:34:36;96905.49;;;9.95;80.16
34921;BME280;21128;50.016;20.002;2024-02-23T03:37:03;96906.84;;;9.96;80.19
34921;BME280;21128;50.016;20.002;2024-02-23T03:39:30;96906.05;;;9.97;79.98
34921;BME280;21128;50.016;20.002;2024-02-23T03:41:58;96904.11;;;9.97;79.90
34921;BME280;21128;50.016;20.002;2024-02-23T03:44:25;96907.43;;;9.99;79.77
34921;BME280;21128;50.016;20.002;2024-02-23T03:46:52;96907.11;;;10.00;79.51
34921;BME280;21128;50.016;20.002;2024-02-23T03:49:18;96910.73;;;10.01;79.41
34921;BME280;21128;50.016;20.002;2024-02-23T03:51:45;96918.83;;;10.02;79.40
34921;BME280;21128;50.016;20.002;2024-02-23T03:54:12;96923.02;;;10.03;79.34
34921;BME280;21128;50.016;20.002;2024-02-23T03:56:40;96924.49;;;10.05;79.27
34921;BME280;21128;50.016;20.002;2024-02-23T03:59:08;96924.82;;;10.05;79.33
34921;BME280;21128;50.016;20.002;2024-02-23T04:01:36;96923.12;;;10.05;79.21
34921;BME280;21128;50.016;20.002;2024-02-23T04:04:04;96931.48;;;10.05;79.25
34921;BME280;21128;50.016;20.002;2024-02-23T04:06:31;96935.03;;;10.05;79.18
34921;BME280;21128;50.016;20.002;2024-02-23T04:08:58;96936.16;;;10.04;79.40
34921;BME280;21128;50.016;20.002;2024-02-23T04:11:25;96942.20;;;10.03;79.29
34921;BME280;21128;50.016;20.002;2024-02-23T04:13:52;96947.26;;;10.04;79.34
34921;BME280;21128;50.016;20.002;2024-02-23T04:16:23;96950.97;;;10.03;79.39
34921;BME280;21128;50.016;20.002;2024-02-23T04:18:50;96953.22;;;10.02;79.42
34921;BME280;21128;50.016;20.002;2024-02-23T04:21:18;96956.23;;;10.02;79.70
34921;BME280;21128;50.016;20.002;2024-02-23T04:23:45;96960.15;;;10.01;79.82
34921;BME280;21128;50.016;20.002;2024-02-23T04:26:13;96957.70;;;10.01;80.07
34921;BME280;21128;50.016;20.002;2024-02-23T04:28:40;96956.02;;;10.01;79.99
34921;BME280;21128;50.016;20.002;2024-02-23T04:31:11;96955.48;;;9.98;80.08
34921;BME280;21128;50.016;20.002;2024-02-23T04:33:37;96958.54;;;9.96;80.15
34921;BME280;21128;50.016;20.002;2024-02-23T04:36:05;96959.48;;;9.94;80.36
34921;BME280;21128;50.016;20.002;2024-02-23T04:38:33;96964.49;;;9.91;80.55
34921;BME280;21128;50.016;20.002;2024-02-23T04:41:04;96967.98;;;9.90;80.63
34921;BME280;21128;50.016;20.002;2024-02-23T04:43:31;96968.37;;;9.86;80.72
34921;BME280;21128;50.016;20.002;2024-02-23T04:45:58;96969.38;;;9.84;80.86
34921;BME280;21128;50.016;20.002;2024-02-23T04:48:25;96969.02;;;9.82;80.92
34921;BME280;21128;50.016;20.002;2024-02-23T04:50:52;96971.63;;;9.80;81.26
34921;BME280;21128;50.016;20.002;2024-02-23T04:53:19;96970.27;;;9.78;81.35
34921;BME280;21128;50.016;20.002;2024-02-23T04:55:46;96970.60;;;9.75;81.49
34921;BME280;21128;50.016;20.002;2024-02-23T04:58:12;96976.41;;;9.73;81.72
34921;BME280;21128;50.016;20.002;2024-02-23T05:00:40;96977.45;;;9.72;81.65
34921;BME280;21128;50.016;20.002;2024-02-23T05:03:06;96977.67;;;9.70;81.92
34921;BME280;21128;50.016;20.002;2024-02-23T05:05:35;96983.39;;;9.69;81.99
34921;BME280;21128;50.016;20.002;2024-02-23T05:08:02;96983.67;;;9.68;82.33
34921;BME280;21128;50.016;20.002;2024-02-23T05:10:29;96984.36;;;9.67;82.45
34921;BME280;21128;50.016;20.002;2024-02-23T05:12:55;96986.37;;;9.66;82.55
34921;BME280;21128;50.016;20.002;2024-02-23T05:15:22;96987.69;;;9.65;82.67
34921;BME280;21128;50.016;20.002;2024-02-23T05:17:49;96992.91;;;9.64;82.94
34921;BME280;21128;50.016;20.002;2024-02-23T05:20:16;96995.98;;;9.63;83.10
34921;BME280;21128;50.016;20.002;2024-02-23T05:22:43;96997.34;;;9.62;83.29
34921;BME280;21128;50.016;20.002;2024-02-23T05:25:09;97000.77;;;9.61;83.52
34921;BME280;21128;50.016;20.002;2024-02-23T05:27:36;97005.27;;;9.60;83.41
34921;BME280;21128;50.016;20.002;2024-02-23T05:30:03;97009.24;;;9.59;83.73
34921;BME280;21128;50.016;20.002;2024-02-23T05:32:30;97012.63;;;9.58;83.85
34921;BME280;21128;50.016;20.002;2024-02-23T05:34:57;97017.95;;;9.57;84.00
34921;BME280;21128;50.016;20.002;2024-02-23T05:37:24;97021.23;;;9.56;84.00
34921;BME280;21128;50.016;20.002;2024-02-23T05:39:51;97023.55;;;9.56;84.12
34921;BME280;21128;50.016;20.002;2024-02-23T05:42:17;97032.89;;;9.55;84.55
34921;BME280;21128;50.016;20.002;2024-02-23T05:44:44;97035.90;;;9.53;84.83
34921;BME280;21128;50.016;20.002;2024-02-23T05:47:11;97041.41;;;9.53;85.16
34921;BME280;21128;50.016;20.002;2024-02-23T05:49:40;97042.58;;;9.52;85.35
34921;BME280;21128;50.016;20.002;2024-02-23T05:52:07;97047.89;;;9.51;85.70
34921;BME280;21128;50.016;20.002;2024-02-23T05:54:34;97052.28;;;9.50;85.70
34921;BME280;21128;50.016;20.002;2024-02-23T05:57:01;97053.05;;;9.49;85.76
34921;BME280;21128;50.016;20.002;2024-02-23T05:59:29;97059.77;;;9.48;86.04
34921;BME280;21128;50.016;20.002;2024-02-23T06:01:56;97064.60;;;9.47;86.60
34921;BME280;21128;50.016;20.002;2024-02-23T06:04:25;97066.67;;;9.46;87.08
34921;BME280;21128;50.016;20.002;2024-02-23T06:06:53;97070.02;;;9.45;87.53
34921;BME280;21128;50.016;20.002;2024-02-23T06:09:21;97071.14;;;9.42;88.12
34921;BME280;21128;50.016;20.002;2024-02-23T06:11:48;97069.91;;;9.39;88.57
34921;BME280;21128;50.016;20.002;2024-02-23T06:14:14;97073.54;;;9.35;88.91
34921;BME280;21128;50.016;20.002;2024-02-23T06:16:41;97074.75;;;9.32;89.09
34921;BME280;21128;50.016;20.002;2024-02-23T06:19:08;97077.27;;;9.30;89.43
34921;BME280;21128;50.016;20.002;2024-02-23T06:21:35;97084.34;;;9.28;89.80
34921;BME280;21128;50.016;20.002;2024-02-23T06:24:03;97091.05;;;9.26;89.93
34921;BME280;21128;50.016;20.002;2024-02-23T06:26:31;97093.30;;;9.24;90.31
34921;BME280;21128;50.016;20.002;2024-02-23T06:28:58;97100.31;;;9.24;91.19
34921;BME280;21128;50.016;20.002;2024-02-23T06:31:25;97102.99;;;9.23;92.13
34921;BME280;21128;50.016;20.002;2024-02-23T06:33:52;97104.13;;;9.24;93.02
34921;BME280;21128;50.016;20.002;2024-02-23T06:36:18;97102.84;;;9.24;93.53
34921;BME280;21128;50.016;20.002;2024-02-23T06:38:45;97115.17;;;9.24;94.00
34921;BME280;21128;50.016;20.002;2024-02-23T06:41:12;97114.23;;;9.24;94.92
34921;BME280;21128;50.016;20.002;2024-02-23T06:43:39;97119.70;;;9.24;95.39
34921;BME280;21128;50.016;20.002;2024-02-23T06:46:09;97122.91;;;9.23;96.69
34921;BME280;21128;50.016;20.002;2024-02-23T06:48:36;97127.61;;;9.25;97.11
34921;BME280;21128;50.016;20.002;2024-02-23T06:51:04;97125.19;;;9.28;98.42
34921;BME280;21128;50.016;20.002;2024-02-23T06:53:31;97125.55;;;9.31;99.37
34921;BME280;21128;50.016;20.002;2024-02-23T06:55:59;97130.58;;;9.33;99.90
34921;BME280;21128;50.016;20.002;2024-02-23T06:58:26;97132.69;;;9.38;100.00
34921;BME280;21128;50.016;20.002;2024-02-23T07:00:53;97138.81;;;9.42;100.00
34921;BME280;21128;50.016;20.002;2024-02-23T07:03:20;97138.42;;;9.45;100.00
34921;BME280;21128;50.016;20.002;2024-02-23T07:05:47;97145.45;;;9.44;100.00
34921;BME280;21128;50.016;20.002;2024-02-23T07:08:16;97145.04;;;9.41;100.00
34921;BME280;21128;50.016;20.002;2024-02-23T07:10:43;97148.45;;;9.37;100.00
34921;BME280;21128;50.016;20.002;2024-02-23T07:13:10;97150.41;;;9.34;100.00
34921;BME280;21128;50.016;20.002;2024-02-23T07:15:37;97150.25;;;9.32;100.00
34921;BME280;21128;50.016;20.002;2024-02-23T07:18:04;97152.15;;;9.30;100.00
34921;BME280;21128;50.016;20.002;2024-02-23T07:20:31;97157.33;;;9.28;100.00
34921;BME280;21128;50.016;20.002;2024-02-23T07:22:58;97158.73;;;9.27;100.00
34921;BME280;21128;50.016;20.002;2024-02-23T07:25:25;97164.01;;;9.25;100.00
34921;BME280;21128;50.016;20.002;2024-02-23T07:27:52;97168.33;;;9.24;100.00
34921;BME280;21128;50.016;20.002;2024-02-23T07:30:19;97170.20;;;9.22;100.00
34921;BME280;21128;50.016;20.002;2024-02-23T07:32:46;97171.41;;;9.23;100.00
34921;BME280;21128;50.016;20.002;2024-02-23T07:35:15;97177.27;;;9.23;100.00
34921;BME280;21128;50.016;20.002;2024-02-23T07:37:42;97177.10;;;9.23;100.00
34921;BME280;21128;50.016;20.002;2024-02-23T07:40:09;97185.23;;;9.26;100.00
34921;BME280;21128;50.016;20.002;2024-02-23T07:42:36;97183.59;;;9.29;100.00
34921;BME280;21128;50.016;20.002;2024-02-23T07:45:04;97188.02;;;9.32;100.00
34921;BME280;21128;50.016;20.002;2024-02-23T07:47:31;97193.98;;;9.35;100.00
34921;BME280;21128;50.016;20.002;2024-02-23T07:49:58;97196.17;;;9.36;100.00
34921;BME280;21128;50.016;20.002;2024-02-23T07:52:25;97200.08;;;9.33;100.00
34921;BME280;21128;50.016;20.002;2024-02-23T07:54:53;97205.36;;;9.28;100.00
34921;BME280;21128;50.016;20.002;2024-02-23T07:57:20;97213.65;;;9.28;100.00
34921;BME280;21128;50.016;20.002;2024-02-23T07:59:47;97217.46;;;9.25;100.00
34921;BME280;21128;50.016;20.002;2024-02-23T08:02:15;97220.23;;;9.22;100.00
34921;BME280;21128;50.016;20.002;2024-02-23T08:04:42;97223.77;;;9.22;100.00
34921;BME280;21128;50.016;20.002;2024-02-23T08:07:09;97226.46;;;9.18;100.00
34921;BME280;21128;50.016;20.002;2024-02-23T08:09:36;97228.42;;;9.18;100.00
34921;BME280;21128;50.016;20.002;2024-02-23T08:12:04;97230.52;;;9.16;100.00
34921;BME280;21128;50.016;20.002;2024-02-23T08:14:31;97231.91;;;9.13;100.00
34921;BME280;21128;50.016;20.002;2024-02-23T08:16:59;97236.55;;;9.14;100.00
34921;BME280;21128;50.016;20.002;2024-02-23T08:19:26;97238.87;;;9.15;100.00
34921;BME280;21128;50.016;20.002;2024-02-23T08:21:53;97241.16;;;9.15;100.00
34921;BME280;21128;50.016;20.002;2024-02-23T08:24:19;97240.38;;;9.17;100.00
34921;BME280;21128;50.016;20.002;2024-02-23T08:26:46;97244.12;;;9.21;100.00
34921;BME280;21128;50.016;20.002;2024-02-23T08:29:13;97248.69;;;9.24;100.00
34921;BME280;21128;50.016;20.002;2024-02-23T08:31:40;97246.73;;;9.23;100.00
34921;BME280;21128;50.016;20.002;2024-02-23T08:34:07;97246.30;;;9.23;100.00
34921;BME280;21128;50.016;20.002;2024-02-23T08:36:33;97250.50;;;9.25;100.00
34921;BME280;21128;50.016;20.002;2024-02-23T08:39:00;97255.90;;;9.19;100.00
34921;BME280;21128;50.016;20.002;2024-02-23T08:41:27;97250.11;;;9.18;100.00
34921;BME280;21128;50.016;20.002;2024-02-23T08:43:54;97246.14;;;9.17;100.00
34921;BME280;21128;50.016;20.002;2024-02-23T08:46:22;97250.64;;;9.14;100.00
34921;BME280;21128;50.016;20.002;2024-02-23T08:48:49;97250.23;;;9.12;100.00
34921;BME280;21128;50.016;20.002;2024-02-23T08:51:15;97254.29;;;9.13;100.00
34921;BME280;21128;50.016;20.002;2024-02-23T08:53:42;97263.86;;;9.10;100.00
34921;BME280;21128;50.016;20.002;2024-02-23T08:56:11;97263.48;;;9.03;100.00
34921;BME280;21128;50.016;20.002;2024-02-23T08:58:38;97259.80;;;9.03;100.00
34921;BME280;21128;50.016;20.002;2024-02-23T09:01:05;97262.80;;;9.07;100.00
34921;BME280;21128;50.016;20.002;2024-02-23T09:03:32;97270.45;;;9.11;100.00
34921;BME280;21128;50.016;20.002;2024-02-23T09:05:58;97274.40;;;9.13;100.00
34921;BME280;21128;50.016;20.002;2024-02-23T09:08:25;97279.16;;;9.08;100.00
34921;BME280;21128;50.016;20.002;2024-02-23T09:10:52;97277.23;;;9.01;100.00
34921;BME280;21128;50.016;20.002;2024-02-23T09:13:19;97273.21;;;8.98;100.00
34921;BME280;21128;50.016;20.002;2024-02-23T09:15:46;97274.61;;;9.00;100.00
34921;BME280;21128;50.016;20.002;2024-02-23T09:18:13;97282.79;;;9.03;100.00
34921;BME280;21128;50.016;20.002;2024-02-23T09:20:39;97288.23;;;9.08;100.00
34921;BME280;21128;50.016;20.002;2024-02-23T09:23:06;97291.04;;;9.12;100.00
34921;BME280;21128;50.016;20.002;2024-02-23T09:25:33;97287.97;;;9.18;100.00
34921;BME280;21128;50.016;20.002;2024-02-23T09:28:00;97287.16;;;9.22;100.00
34921;BME280;21128;50.016;20.002;2024-02-23T09:30:27;97280.85;;;9.24;100.00
34921;BME280;21128;50.016;20.002;2024-02-23T09:32:54;97287.95;;;9.24;100.00
34921;BME280;21128;50.016;20.002;2024-02-23T09:35:21;97295.04;;;9.26;100.00
34921;BME280;21128;50.016;20.002;2024-02-23T09:37:47;97295.21;;;9.29;100.00
34921;BME280;21128;50.016;20.002;2024-02-23T09:40:15;97304.44;;;9.35;100.00
34921;BME280;21128;50.016;20.002;2024-02-23T09:42:43;97312.14;;;9.40;100.00
34921;BME280;21128;50.016;20.002;2024-02-23T09:45:15;97317.61;;;9.42;100.00
34921;BME280;21128;50.016;20.002;2024-02-23T09:47:42;97322.98;;;9.42;100.00
34921;BME280;21128;50.016;20.002;2024-02-23T09:50:10;97326.22;;;9.43;100.00
34921;BME280;21128;50.016;20.002;2024-02-23T09:52:38;97332.10;;;9.42;100.00
34921;BME280;21128;50.016;20.002;2024-02-23T09:55:05;97334.04;;;9.42;100.00
34921;BME280;21128;50.016;20.002;2024-02-23T09:57:33;97340.39;;;9.38;100.00
34921;BME280;21128;50.016;20.002;2024-02-23T10:00:01;97348.67;;;9.39;100.00
34921;BME280;21128;50.016;20.002;2024-02-23T10:02:32;97351.16;;;9.34;100.00
34921;BME280;21128;50.016;20.002;2024-02-23T10:05:00;97353.94;;;9.25;100.00
34921;BME280;21128;50.016;20.002;2024-02-23T10:07:29;97349.14;;;9.22;100.00
34921;BME280;21128;50.016;20.002;2024-02-23T10:09:56;97350.98;;;9.21;100.00
34921;BME280;21128;50.016;20.002;2024-02-23T10:12:23;97346.86;;;9.25;100.00
34921;BME280;21128;50.016;20.002;2024-02-23T10:14:50;97343.36;;;9.27;100.00
34921;BME280;21128;50.016;20.002;2024-02-23T10:17:16;97348.19;;;9.26;100.00
34921;BME280;21128;50.016;20.002;2024-02-23T10:19:44;97352.84;;;9.22;100.00
34921;BME280;21128;50.016;20.002;2024-02-23T10:22:11;97351.95;;;9.18;100.00
34921;BME280;21128;50.016;20.002;2024-02-23T10:24:38;97357.52;;;9.16;100.00
34921;BME280;21128;50.016;20.002;2024-02-23T10:27:05;97356.23;;;9.15;100.00
34921;BME280;21128;50.016;20.002;2024-02-23T10:29:33;97353.56;;;9.20;100.00
34921;BME280;21128;50.016;20.002;2024-02-23T10:32:00;97349.51;;;9.30;100.00
34921;BME280;21128;50.016;20.002;2024-02-23T10:34:29;97346.81;;;9.40;100.00
34921;BME280;21128;50.016;20.002;2024-02-23T10:36:57;97351.84;;;9.50;100.00
34921;BME280;21128;50.016;20.002;2024-02-23T10:39:24;97354.14;;;9.58;100.00
34921;BME280;21128;50.016;20.002;2024-02-23T10:42:02;97359.46;;;9.65;100.00
34921;BME280;21128;50.016;20.002;2024-02-23T10:44:30;97360.70;;;9.62;100.00
34921;BME280;21128;50.016;20.002;2024-02-23T10:46:58;97358.64;;;9.66;100.00
34921;BME280;21128;50.016;20.002;2024-02-23T10:49:26;97355.50;;;9.76;100.00
34921;BME280;21128;50.016;20.002;2024-02-23T10:51:54;97356.44;;;9.83;100.00
34921;BME280;21128;50.016;20.002;2024-02-23T10:54:22;97351.02;;;9.86;100.00
34921;BME280;21128;50.016;20.002;2024-02-23T10:56:50;97351.64;;;9.97;100.00
34921;BME280;21128;50.016;20.002;2024-02-23T10:59:17;97355.38;;;10.10;100.00
34921;BME280;21128;50.016;20.002;2024-02-23T11:01:48;97359.13;;;10.11;100.00
34921;BME280;21128;50.016;20.002;2024-02-23T11:04:16;97363.17;;;10.03;100.00
34921;BME280;21128;50.016;20.002;2024-02-23T11:06:49;97358.51;;;9.99;100.00
34921;BME280;21128;50.016;20.002;2024-02-23T11:09:16;97360.02;;;10.02;100.00
34921;BME280;21128;50.016;20.002;2024-02-23T11:11:57;97361.52;;;9.99;100.00
34921;BME280;21128;50.016;20.002;2024-02-23T11:14:31;97364.06;;;10.03;100.00
34921;BME280;21128;50.016;20.002;2024-02-23T11:17:02;97371.93;;;10.10;100.00
34921;BME280;21128;50.016;20.002;2024-02-23T11:19:34;97374.77;;;10.11;100.00
34921;BME280;21128;50.016;20.002;2024-02-23T11:22:02;97377.34;;;10.09;100.00
34921;BME280;21128;50.016;20.002;2024-02-23T11:24:31;97377.44;;;10.08;100.00
34921;BME280;21128;50.016;20.002;2024-02-23T11:26:59;97377.92;;;10.12;100.00
34921;BME280;21128;50.016;20.002;2024-02-23T11:29:29;97378.91;;;10.11;100.00
34921;BME280;21128;50.016;20.002;2024-02-23T11:31:57;97379.22;;;10.03;100.00
34921;BME280;21128;50.016;20.002;2024-02-23T11:34:28;97379.86;;;10.01;100.00
34921;BME280;21128;50.016;20.002;2024-02-23T11:36:54;97372.93;;;10.00;100.00
34921;BME280;21128;50.016;20.002;2024-02-23T11:39:22;97378.90;;;10.06;100.00
34921;BME280;21128;50.016;20.002;2024-02-23T11:41:50;97377.81;;;10.06;100.00
34921;BME280;21128;50.016;20.002;2024-02-23T11:44:17;97378.23;;;10.04;100.00
34921;BME280;21128;50.016;20.002;2024-02-23T11:46:44;97376.89;;;10.07;100.00
34921;BME280;21128;50.016;20.002;2024-02-23T11:49:14;97377.83;;;10.14;100.00
34921;BME280;21128;50.016;20.002;2024-02-23T11:51:43;97386.11;;;10.23;100.00
34921;BME280;21128;50.016;20.002;2024-02-23T11:54:11;97381.21;;;10.30;100.00
34921;BME280;21128;50.016;20.002;2024-02-23T11:56:40;97376.56;;;10.37;100.00
34921;BME280;21128;50.016;20.002;2024-02-23T11:59:07;97376.92;;;10.43;100.00
34921;BME280;21128;50.016;20.002;2024-02-23T12:01:34;97377.45;;;10.47;100.00
34921;BME280;21128;50.016;20.002;2024-02-23T12:04:01;97385.15;;;10.45;100.00
34921;BME280;21128;50.016;20.002;2024-02-23T12:06:29;97387.66;;;10.38;100.00
34921;BME280;21128;50.016;20.002;2024-02-23T12:08:57;97390.45;;;10.32;100.00
34921;BME280;21128;50.016;20.002;2024-02-23T12:11:24;97391.39;;;10.27;100.00
34921;BME280;21128;50.016;20.002;2024-02-23T12:13:51;97392.79;;;10.23;100.00
34921;BME280;21128;50.016;20.002;2024-02-23T12:16:20;97399.28;;;10.22;100.00
34921;BME280;21128;50.016;20.002;2024-02-23T12:18:55;97398.70;;;10.23;100.00
34921;BME280;21128;50.016;20.002;2024-02-23T12:21:23;97399.16;;;10.20;100.00
34921;BME280;21128;50.016;20.002;2024-02-23T12:23:51;97404.78;;;10.26;100.00
34921;BME280;21128;50.016;20.002;2024-02-23T12:26:18;97406.02;;;10.28;100.00
34921;BME280;21128;50.016;20.002;2024-02-23T12:28:45;97408.42;;;10.30;100.00
34921;BME280;21128;50.016;20.002;2024-02-23T12:31:12;97409.66;;;10.33;100.00
34921;BME280;21128;50.016;20.002;2024-02-23T12:33:40;97412.85;;;10.28;100.00
34921;BME280;21128;50.016;20.002;2024-02-23T12:36:08;97410.89;;;10.29;100.00
34921;BME280;21128;50.016;20.002;2024-02-23T12:38:36;97412.77;;;10.37;100.00
34921;BME280;21128;50.016;20.002;2024-02-23T12:41:04;97415.38;;;10.45;100.00
34921;BME280;21128;50.016;20.002;2024-02-23T12:43:31;97411.52;;;10.50;100.00
34921;BME280;21128;50.016;20.002;2024-02-23T12:45:58;97418.69;;;10.49;100.00
34921;BME280;21128;50.016;20.002;2024-02-23T12:48:25;97416.29;;;10.37;100.00
34921;BME280;21128;50.016;20.002;2024-02-23T12:50:52;97421.48;;;10.30;100.00
34921;BME280;21128;50.016;20.002;2024-02-23T12:58:35;97419.86;;;10.21;100.00